Arcadia, Michigan
Current Conditions -  °F | °C
As of 5:15 PM on Tuesday 21 Oct 2014 (Local Time) from KFKS Reporting Station
Clear Clear  
Wind Chill: 45°   Ceiling: Unl
Heat Index: 48°   Visibility: 10mi
Dew Point: 34°   Wind: 6mph
Humidity: 58%   Direction: 10°N
Pressure: 30.21"   Gusts: NA
Location:  44.49°N, 86.23°W
Report Text: KFKS 212115Z AUTO 01005KT 10SM CLR 09/01 A3021 RMK AO2 T00890011
Loading
Personal Weather Stations






























Interactive Weather Map
Tropical Storm Tracking
New forecast layout! Learn more

10-Day Weather Forecast

Advertisements
Track Severe Weather on mobile